Time;durP1;ratioP1;P1;durP2;ratioP2;P2;SDS_P1;SDS_P2;PMS_P1;PMS_P2;Temp;Humidity;BMP_temperature;BMP_pressure;BME280_temperature;BME280_humidity;BME280_pressure;Samples;Min_cycle;Max_cycle;Signal;HPM_P1;HPM_P2
2023/10/23 00:01:08;;;;;;;1.33;0.93;;;;;;;12.60;100.00;100717.63;5069651;28;20937;-69
2023/10/23 00:03:37;;;;;;;1.27;0.73;;;;;;;12.54;100.00;100726.66;5072818;28;20425;-68
2023/10/23 00:06:06;;;;;;;1.73;0.80;;;;;;;12.50;100.00;100722.72;5063520;28;20430;-69
2023/10/23 00:08:36;;;;;;;1.40;0.73;;;;;;;12.40;100.00;100721.53;5069948;28;20437;-69
2023/10/23 00:11:05;;;;;;;1.47;0.97;;;;;;;12.36;100.00;100721.13;5073937;28;20470;-69
2023/10/23 00:13:34;;;;;;;1.63;0.90;;;;;;;12.34;100.00;100722.41;5070451;28;20466;-69
2023/10/23 00:16:03;;;;;;;1.00;0.60;;;;;;;12.14;100.00;100722.53;5068348;28;20816;-66
2023/10/23 00:18:31;;;;;;;1.33;0.90;;;;;;;12.05;100.00;100729.25;5068843;28;20839;-69
2023/10/23 00:21:01;;;;;;;1.00;0.67;;;;;;;11.99;100.00;100730.09;5072062;28;20818;-68
2023/10/23 00:23:29;;;;;;;1.10;0.70;;;;;;;11.84;100.00;100727.66;5060482;28;20450;-68
2023/10/23 00:26:00;;;;;;;1.30;0.80;;;;;;;11.70;100.00;100729.56;5066366;28;20447;-70
2023/10/23 00:28:29;;;;;;;1.40;0.70;;;;;;;11.65;100.00;100734.78;5070553;28;20416;-68
2023/10/23 00:30:59;;;;;;;1.27;0.97;;;;;;;11.68;100.00;100734.34;5065982;28;20503;-68
2023/10/23 00:33:28;;;;;;;1.97;1.33;;;;;;;11.45;100.00;100741.28;5071509;28;20446;-68
2023/10/23 00:35:57;;;;;;;1.33;0.83;;;;;;;11.21;100.00;100738.19;5066791;28;20923;-69
2023/10/23 00:38:28;;;;;;;1.93;1.20;;;;;;;11.17;100.00;100731.53;5065643;28;20463;-69
2023/10/23 00:40:58;;;;;;;1.10;0.80;;;;;;;11.12;100.00;100734.03;5067007;28;20453;-68
2023/10/23 00:43:28;;;;;;;1.40;1.00;;;;;;;11.00;100.00;100740.28;5067963;28;20425;-69
2023/10/23 00:45:58;;;;;;;1.93;0.93;;;;;;;11.00;100.00;100737.56;5069011;28;20438;-68
2023/10/23 00:48:28;;;;;;;1.30;0.80;;;;;;;10.90;100.00;100736.13;5068847;28;20397;-67
2023/10/23 00:50:58;;;;;;;4.37;1.17;;;;;;;10.88;100.00;100737.38;5069888;28;20988;-69
2023/10/23 00:53:32;;;;;;;1.50;1.07;;;;;;;10.80;100.00;100735.69;5070475;28;20561;-68
2023/10/23 00:56:05;;;;;;;1.20;0.87;;;;;;;10.69;100.00;100730.91;5069120;28;20435;-69
2023/10/23 00:58:38;;;;;;;1.60;1.50;;;;;;;10.73;100.00;100728.63;5065603;28;20480;-69
2023/10/23 01:01:11;;;;;;;1.47;1.20;;;;;;;10.74;100.00;100720.31;5068553;28;20513;-67
2023/10/23 01:03:42;;;;;;;1.37;0.70;;;;;;;10.89;100.00;100729.03;5066021;28;20594;-68
2023/10/23 01:06:12;;;;;;;1.30;0.90;;;;;;;10.77;100.00;100730.72;5063936;28;20417;-68
2023/10/23 01:08:43;;;;;;;2.60;1.03;;;;;;;10.72;100.00;100735.06;5070878;28;20413;-68
2023/10/23 01:11:14;;;;;;;2.40;1.10;;;;;;;10.76;100.00;100730.91;5070797;28;20804;-68
2023/10/23 01:13:44;;;;;;;1.93;0.83;;;;;;;10.66;100.00;100739.44;5070797;28;20461;-68
2023/10/23 01:16:12;;;;;;;3.40;2.27;;;;;;;10.54;100.00;100735.69;5072455;28;20828;-66
2023/10/23 01:18:42;;;;;;;1.10;0.90;;;;;;;10.60;100.00;100739.44;5076177;28;20401;-68
2023/10/23 01:21:12;;;;;;;2.07;1.10;;;;;;;10.79;100.00;100736.75;5082984;28;20446;-68
2023/10/23 01:23:43;;;;;;;1.87;0.97;;;;;;;10.71;100.00;100742.34;5066054;28;20493;-67
2023/10/23 01:26:13;;;;;;;1.83;1.40;;;;;;;10.74;100.00;100738.41;5074618;28;20449;-68
2023/10/23 01:28:43;;;;;;;2.00;1.50;;;;;;;10.63;100.00;100737.16;5068328;28;20948;-69
2023/10/23 01:31:12;;;;;;;1.40;0.87;;;;;;;10.59;100.00;100744.03;5068726;28;20438;-68
2023/10/23 01:33:41;;;;;;;1.37;1.10;;;;;;;10.51;100.00;100749.59;5072322;28;20493;-68
2023/10/23 01:36:11;;;;;;;1.10;0.70;;;;;;;10.59;100.00;100744.03;5073040;28;20427;-68
2023/10/23 01:38:40;;;;;;;0.80;0.60;;;;;;;10.48;100.00;100743.78;5072119;28;20396;-69
2023/10/23 01:41:08;;;;;;;3.17;1.37;;;;;;;10.34;100.00;100751.03;5076399;28;20434;-69
2023/10/23 01:43:38;;;;;;;1.20;0.97;;;;;;;10.30;100.00;100755.19;5072104;28;20459;-68
2023/10/23 01:46:07;;;;;;;2.70;1.30;;;;;;;10.37;100.00;100753.31;5069293;28;20804;-69
2023/10/23 01:48:36;;;;;;;1.60;1.03;;;;;;;10.25;100.00;100753.09;5069219;28;20458;-68
2023/10/23 01:51:05;;;;;;;2.10;1.20;;;;;;;10.37;100.00;100746.03;5070871;28;20449;-69
2023/10/23 01:53:34;;;;;;;1.70;1.20;;;;;;;10.35;100.00;100753.53;5073894;28;21011;-69
2023/10/23 01:56:08;;;;;;;3.63;1.00;;;;;;;10.38;100.00;100747.72;5082291;28;20447;-68
2023/10/23 01:58:38;;;;;;;1.00;0.80;;;;;;;10.45;100.00;100751.28;5071729;28;20402;-68
2023/10/23 02:01:07;;;;;;;2.27;1.43;;;;;;;10.41;100.00;100754.56;5073491;28;20772;-68
2023/10/23 02:03:36;;;;;;;2.83;1.13;;;;;;;10.55;100.00;100756.31;5070658;28;20511;-68
2023/10/23 02:06:05;;;;;;;1.20;0.83;;;;;;;10.76;100.00;100752.56;5078413;28;20404;-68
2023/10/23 02:08:34;;;;;;;3.13;1.20;;;;;;;10.69;100.00;100751.72;5074251;28;20959;-69
2023/10/23 02:11:03;;;;;;;2.10;1.20;;;;;;;10.73;100.00;100753.81;5060773;28;20437;-68
2023/10/23 02:13:32;;;;;;;1.87;1.20;;;;;;;10.86;100.00;100750.28;5074423;28;20428;-68
2023/10/23 02:16:02;;;;;;;1.47;1.20;;;;;;;10.99;100.00;100752.97;5072777;28;20499;-69
2023/10/23 02:18:30;;;;;;;1.53;1.30;;;;;;;11.01;100.00;100755.50;5071019;28;20417;-69
2023/10/23 02:21:01;;;;;;;1.60;0.90;;;;;;;10.89;100.00;100761.53;5062817;28;20439;-69
2023/10/23 02:23:32;;;;;;;1.30;1.03;;;;;;;10.85;100.00;100760.28;5070760;28;20441;-69
2023/10/23 02:26:21;;;;;;;2.03;1.10;;;;;;;10.89;100.00;100760.72;5067851;28;20414;-67
2023/10/23 02:28:50;;;;;;;7.87;1.33;;;;;;;10.90;100.00;100762.34;5072137;28;20894;-68
2023/10/23 02:31:21;;;;;;;1.97;1.57;;;;;;;10.77;100.00;100768.59;5069424;28;20462;-68
2023/10/23 02:33:49;;;;;;;2.97;1.33;;;;;;;10.86;100.00;100766.53;5065135;28;20456;-69
2023/10/23 02:36:18;;;;;;;3.17;1.23;;;;;;;10.88;100.00;100770.72;5074102;28;20834;-68
2023/10/23 02:38:47;;;;;;;2.00;0.93;;;;;;;10.80;100.00;100776.31;5062103;28;21057;-68
2023/10/23 02:41:17;;;;;;;1.80;1.60;;;;;;;10.67;100.00;100776.28;5063402;28;20466;-67
2023/10/23 02:43:46;;;;;;;2.90;1.30;;;;;;;10.74;100.00;100779.00;5073387;28;20535;-69
2023/10/23 02:46:15;;;;;;;1.50;0.90;;;;;;;10.80;100.00;100784.41;5075020;28;20495;-69
2023/10/23 02:48:45;;;;;;;1.87;1.20;;;;;;;10.91;100.00;100785.69;5072330;28;20829;-68
2023/10/23 02:51:14;;;;;;;1.00;0.83;;;;;;;11.03;100.00;100788.63;5069723;28;20942;-69
2023/10/23 02:53:43;;;;;;;1.97;1.10;;;;;;;11.17;100.00;100790.28;5068042;28;20482;-68
2023/10/23 02:56:12;;;;;;;4.83;1.23;;;;;;;11.13;100.00;100792.59;5070542;28;20421;-69
2023/10/23 02:58:42;;;;;;;1.57;1.27;;;;;;;10.93;100.00;100794.44;5069485;28;20434;-69
2023/10/23 03:01:19;;;;;;;1.80;1.37;;;;;;;10.94;100.00;100806.13;5073387;28;20792;-68
2023/10/23 03:03:50;;;;;;;1.73;1.17;;;;;;;10.88;100.00;100805.06;5070680;28;20466;-68
2023/10/23 03:06:20;;;;;;;3.87;1.07;;;;;;;10.77;100.00;100800.25;5072020;28;20458;-67
2023/10/23 03:08:49;;;;;;;1.20;0.83;;;;;;;10.71;100.00;100801.91;5054283;28;20417;-68
2023/10/23 03:11:18;;;;;;;2.50;1.23;;;;;;;10.63;100.00;100803.97;5070079;28;21002;-67
2023/10/23 03:13:47;;;;;;;1.67;1.40;;;;;;;10.52;100.00;100805.38;5071730;28;20437;-69
2023/10/23 03:16:15;;;;;;;2.40;1.07;;;;;;;10.34;100.00;100805.97;5054434;28;20953;-68
2023/10/23 03:18:45;;;;;;;6.33;1.20;;;;;;;10.41;100.00;100811.38;5069321;28;20514;-68
2023/10/23 03:21:15;;;;;;;1.87;0.90;;;;;;;10.39;100.00;100808.06;5068679;28;20492;-71
2023/10/23 03:23:44;;;;;;;3.07;1.20;;;;;;;10.54;100.00;100806.03;5072767;28;20429;-69
2023/10/23 03:26:13;;;;;;;1.53;0.90;;;;;;;10.48;100.00;100806.84;5068944;28;20401;-68
2023/10/23 03:28:41;;;;;;;2.00;1.40;;;;;;;10.31;100.00;100806.34;5072839;28;20401;-68
2023/10/23 03:31:11;;;;;;;1.43;0.93;;;;;;;10.27;100.00;100817.78;5073049;28;20977;-68
2023/10/23 03:33:41;;;;;;;3.90;1.77;;;;;;;10.29;100.00;100810.31;5077219;28;20623;-68
2023/10/23 03:36:10;;;;;;;10.27;1.37;;;;;;;10.17;100.00;100812.75;5069540;28;20478;-67
2023/10/23 03:38:41;;;;;;;2.23;1.50;;;;;;;10.21;100.00;100813.19;5077977;28;20430;-67
2023/10/23 03:41:10;;;;;;;2.43;1.50;;;;;;;10.15;100.00;100814.81;5073137;28;20426;-68
2023/10/23 03:43:40;;;;;;;3.70;1.57;;;;;;;10.12;100.00;100812.47;5071083;28;20436;-68
2023/10/23 03:46:09;;;;;;;3.63;1.30;;;;;;;10.17;100.00;100809.22;5061242;28;20445;-69
2023/10/23 03:48:41;;;;;;;1.20;1.07;;;;;;;10.31;100.00;100806.34;5070717;28;20431;-68
2023/10/23 03:51:10;;;;;;;1.30;0.80;;;;;;;10.21;100.00;100805.94;5063933;28;20481;-69
2023/10/23 03:53:40;;;;;;;3.70;1.37;;;;;;;10.34;100.00;100810.53;5075691;28;20447;-68
2023/10/23 03:56:09;;;;;;;3.67;1.30;;;;;;;10.42;100.00;100811.19;5058812;28;20453;-68
2023/10/23 03:58:38;;;;;;;1.43;1.33;;;;;;;10.50;100.00;100810.19;5071435;28;20432;-68
2023/10/23 04:01:07;;;;;;;2.37;1.07;;;;;;;10.45;100.00;100818.09;5063891;28;20485;-68
2023/10/23 04:03:35;;;;;;;6.90;1.60;;;;;;;10.23;100.00;100820.06;5075437;28;20860;-69
2023/10/23 04:06:05;;;;;;;1.83;1.20;;;;;;;9.95;100.00;100828.22;5079586;28;20401;-68
2023/10/23 04:08:34;;;;;;;1.57;1.33;;;;;;;9.92;100.00;100828.59;5069145;28;20408;-69
2023/10/23 04:11:04;;;;;;;1.93;1.00;;;;;;;9.87;100.00;100825.69;5067549;28;20462;-68
2023/10/23 04:13:35;;;;;;;2.60;1.53;;;;;;;10.08;100.00;100830.16;5071884;28;20425;-67
2023/10/23 04:16:04;;;;;;;1.87;1.20;;;;;;;10.04;100.00;100829.72;5069384;28;20493;-69
2023/10/23 04:18:33;;;;;;;5.63;1.60;;;;;;;9.97;100.00;100831.53;5064402;28;20436;-67
2023/10/23 04:21:07;;;;;;;1.47;1.37;;;;;;;10.06;100.00;100832.25;5062255;28;20437;-68
2023/10/23 04:23:36;;;;;;;2.10;1.70;;;;;;;10.17;100.00;100836.25;5072285;28;20488;-68
2023/10/23 04:26:07;;;;;;;2.63;1.97;;;;;;;10.16;100.00;100840.00;5068701;28;20738;-69
2023/10/23 04:28:37;;;;;;;5.20;1.30;;;;;;;9.93;100.00;100835.69;5065761;28;20434;-68
2023/10/23 04:31:08;;;;;;;3.00;1.40;;;;;;;10.03;100.00;100836.16;5073115;28;20984;-69
2023/10/23 04:33:37;;;;;;;2.90;2.10;;;;;;;9.94;100.00;100837.34;5073852;28;20424;-68
2023/10/23 04:36:06;;;;;;;1.48;1.23;;;;;;;9.76;100.00;100844.31;5060513;28;20425;-68
2023/10/23 04:38:35;;;;;;;1.93;1.33;;;;;;;9.76;100.00;100847.03;5072016;28;20203;-68
2023/10/23 04:41:03;;;;;;;2.67;2.10;;;;;;;9.64;100.00;100856.69;5077049;28;20396;-68
2023/10/23 04:43:35;;;;;;;1.93;1.10;;;;;;;9.75;100.00;100851.59;5068895;28;20810;-69
2023/10/23 04:46:04;;;;;;;2.40;1.43;;;;;;;9.74;100.00;100852.63;5069126;28;20425;-69
2023/10/23 04:48:33;;;;;;;4.80;1.80;;;;;;;9.83;100.00;100856.81;5069863;28;20414;-68
2023/10/23 04:51:03;;;;;;;2.65;1.98;;;;;;;9.97;100.00;100847.75;5063435;28;20436;-68
2023/10/23 04:53:32;;;;;;;3.60;2.00;;;;;;;10.10;100.00;100862.41;5064508;28;20269;-68
2023/10/23 04:56:04;;;;;;;3.20;1.80;;;;;;;9.96;100.00;100861.50;5072007;28;20409;-69
2023/10/23 04:58:34;;;;;;;2.67;1.77;;;;;;;10.01;100.00;100859.88;5068184;28;20808;-68
2023/10/23 05:01:03;;;;;;;3.53;1.83;;;;;;;10.02;100.00;100860.72;5071339;28;20412;-68
2023/10/23 05:03:32;;;;;;;4.20;2.47;;;;;;;10.02;100.00;100861.53;5062224;28;20433;-68
2023/10/23 05:06:02;;;;;;;4.90;2.53;;;;;;;9.92;100.00;100863.75;5071451;28;20404;-67
2023/10/23 05:08:30;;;;;;;5.00;2.87;;;;;;;10.06;100.00;100858.44;5070351;28;20481;-67
2023/10/23 05:11:06;;;;;;;4.57;1.90;;;;;;;9.99;100.00;100866.50;5071329;28;20430;-68
2023/10/23 05:13:36;;;;;;;1.77;1.67;;;;;;;9.91;100.00;100870.22;5070945;28;20491;-68
2023/10/23 05:16:06;;;;;;;6.10;2.50;;;;;;;9.71;100.00;100863.00;5071063;28;20793;-69
2023/10/23 05:18:35;;;;;;;2.50;1.80;;;9.80;99.90;;;9.49;100.00;100865.72;5073418;28;20409;-68
2023/10/23 05:21:08;;;;;;;2.75;1.85;;;;;;;9.65;100.00;100864.63;5071747;28;20484;-69
2023/10/23 05:23:36;;;;;;;4.23;2.60;;;;;;;9.80;100.00;100873.44;5071104;28;20578;-68
2023/10/23 05:26:06;;;;;;;2.53;2.03;;;;;;;9.76;100.00;100860.53;5066202;28;20846;-68
2023/10/23 05:28:38;;;;;;;8.83;3.20;;;;;;;9.64;100.00;100867.50;5070574;28;20195;-67
2023/10/23 05:31:08;;;;;;;2.67;2.42;;;;;;;9.55;100.00;100874.91;5068518;28;20772;-69
2023/10/23 05:33:37;;;;;;;4.28;1.80;;;;;;;9.68;100.00;100874.22;5071359;28;20212;-67
2023/10/23 05:36:09;;;;;;;1.70;1.57;;;9.70;99.90;;;9.60;100.00;100878.72;5071848;28;20192;-68
2023/10/23 05:38:39;;;;;;;4.77;1.90;;;9.70;99.90;;;9.45;100.00;100879.81;5068876;28;20509;-68
2023/10/23 05:41:07;;;;;;;6.30;2.80;;;9.60;99.90;;;9.53;100.00;100877.84;5067607;28;20437;-68
2023/10/23 05:43:38;;;;;;;3.33;2.47;;;9.60;99.90;;;9.41;100.00;100883.94;5068859;28;20708;-68
2023/10/23 05:46:07;;;;;;;5.93;4.13;;;9.50;99.90;;;9.22;100.00;100884.59;5074144;28;20454;-68
2023/10/23 05:48:36;;;;;;;2.55;1.65;;;9.40;99.90;;;9.30;100.00;100892.56;5072161;28;20401;-66
2023/10/23 05:51:06;;;;;;;2.65;2.05;;;9.40;99.90;;;9.41;100.00;100900.16;5078632;28;20242;-68
2023/10/23 05:53:35;;;;;;;3.77;2.20;;;9.50;99.90;;;9.19;100.00;100895.81;5071256;28;20219;-68
2023/10/23 05:56:05;;;;;;;3.53;2.42;;;9.30;99.90;;;9.27;100.00;100901.06;5071375;28;20412;-69
2023/10/23 05:58:35;;;;;;;4.93;2.95;;;9.30;99.90;;;9.30;100.00;100897.97;5068791;28;20192;-69
2023/10/23 06:01:09;;;;;;;2.80;2.15;;;9.40;99.90;;;9.09;100.00;100905.06;5071793;28;20192;-68
2023/10/23 06:03:39;;;;;;;2.17;1.52;;;9.20;99.90;;;9.38;100.00;100912.19;5069448;28;20215;-67
2023/10/23 06:06:07;;;;;;;6.93;2.83;;;9.30;99.90;;;9.62;100.00;100919.06;5071112;28;20195;-69
2023/10/23 06:08:36;;;;;;;6.20;3.22;;;;;;;9.88;100.00;100919.25;5070219;28;20443;-68
2023/10/23 06:11:09;;;;;;;2.78;2.00;;;9.50;99.90;;;9.59;100.00;100904.06;5075142;28;20192;-68
2023/10/23 06:13:38;;;;;;;4.13;2.75;;;9.60;99.90;;;9.34;100.00;100915.47;5066203;28;20291;-67
2023/10/23 06:16:08;;;;;;;3.55;2.42;;;9.50;99.90;;;9.19;100.00;100906.59;5071783;28;20609;-68
2023/10/23 06:18:39;;;;;;;4.05;2.30;;;9.30;99.90;;;9.13;100.00;100914.44;5073144;28;20208;-68
2023/10/23 06:21:08;;;;;;;4.60;2.30;;;9.30;99.90;;;9.16;100.00;100913.22;5068931;28;20184;-67
2023/10/23 06:23:38;;;;;;;4.20;2.97;;;9.30;99.90;;;9.01;100.00;100917.81;5070915;28;20208;-68
2023/10/23 06:26:08;;;;;;;6.03;3.28;;;9.20;99.90;;;9.08;100.00;100926.84;5070030;28;20483;-69
2023/10/23 06:28:37;;;;;;;6.63;2.53;;;9.20;99.90;;;9.03;100.00;100940.06;5072503;28;20188;-67
2023/10/23 06:31:08;;;;;;;3.80;2.20;;;9.20;99.90;;;9.12;100.00;100934.38;5071568;28;20529;-67
2023/10/23 06:33:42;;;;;;;4.70;2.03;;;9.20;99.90;;;9.20;100.00;100940.69;5071336;28;20216;-68
2023/10/23 06:36:11;;;;;;;4.55;2.28;;;9.20;99.90;;;9.26;100.00;100939.91;5069970;28;20611;-69
2023/10/23 06:38:40;;;;;;;4.93;3.00;;;9.30;99.90;;;9.30;100.00;100941.19;5068691;28;20188;-67
2023/10/23 06:41:09;;;;;;;2.70;2.00;;;9.30;99.90;;;9.35;100.00;100939.56;5071063;28;20435;-68
2023/10/23 06:43:38;;;;;;;3.80;2.25;;;9.40;99.90;;;9.31;100.00;100942.84;5074437;28;20458;-68
2023/10/23 06:46:08;;;;;;;2.80;2.37;;;9.40;99.90;;;9.27;100.00;100938.88;5059835;28;20592;-69
2023/10/23 06:48:44;;;;;;;3.13;2.20;;;9.30;99.90;;;9.25;100.00;100938.22;5068181;28;20420;-68
2023/10/23 06:51:13;;;;;;;4.27;2.67;;;9.40;99.90;;;9.62;100.00;100940.66;5075860;28;20980;-69
2023/10/23 06:53:42;;;;;;;2.83;2.40;;;9.50;99.90;;;9.54;100.00;100938.09;5068438;28;20477;-67
2023/10/23 06:56:10;;;;;;;3.93;2.80;;;9.60;99.90;;;9.47;100.00;100939.91;5067012;28;21010;-71
2023/10/23 06:58:39;;;;;;;6.40;3.50;;;9.60;99.90;;;9.57;100.00;100935.00;5071049;28;20504;-68
2023/10/23 07:01:09;;;;;;;2.50;2.27;;;9.60;99.90;;;9.65;100.00;100940.25;5062184;28;20424;-70
2023/10/23 07:03:39;;;;;;;3.47;2.50;;;9.70;99.90;;;9.87;100.00;100936.50;5071720;28;20446;-67
2023/10/23 07:06:08;;;;;;;7.40;4.63;;;9.80;99.90;;;10.13;100.00;100921.47;5069445;28;20528;-67
2023/10/23 07:08:39;;;;;;;3.73;2.43;;;10.00;99.90;;;10.39;100.00;100917.09;5064357;28;20518;-67
2023/10/23 07:11:15;;;;;;;4.60;2.57;;;10.20;99.90;;;10.50;100.00;100921.13;5072615;28;20512;-67
2023/10/23 07:13:44;;;;;;;3.30;2.30;;;;;;;10.68;100.00;100924.09;5066860;28;20466;-66
2023/10/23 07:16:14;;;;;;;5.07;3.47;;;;;;;10.90;100.00;100935.63;5073615;28;20496;-66
2023/10/23 07:18:45;;;;;;;9.30;3.70;;;;;;;11.06;100.00;100937.13;5071291;28;20405;-64
2023/10/23 07:21:14;;;;;;;8.50;4.60;;;;;;;11.23;100.00;100952.78;5063191;28;20510;-66
2023/10/23 07:23:44;;;;;;;6.47;3.60;;;;;;;11.36;100.00;100951.16;5071692;28;20500;-65
2023/10/23 07:26:14;;;;;;;5.83;3.27;;;;;;;11.42;100.00;100959.31;5068979;28;20434;-67
2023/10/23 07:28:44;;;;;;;5.43;3.30;;;;;;;11.36;100.00;100960.13;5074733;28;20470;-66
2023/10/23 07:31:14;;;;;;;9.33;3.87;;;;;;;11.53;100.00;100958.69;5073877;28;20429;-66
2023/10/23 07:33:44;;;;;;;6.80;3.27;;;;;;;11.56;100.00;100962.88;5075756;28;20440;-69
2023/10/23 07:36:14;;;;;;;6.20;3.10;;;;;;;11.56;100.00;100965.59;5071605;28;21077;-68
2023/10/23 07:38:45;;;;;;;4.93;2.80;;;;;;;11.61;100.00;100963.94;5072046;28;20424;-67
2023/10/23 07:41:14;;;;;;;7.80;3.97;;;;;;;11.73;100.00;100967.72;5068235;28;20430;-66
2023/10/23 07:43:43;;;;;;;7.73;4.33;;;;;;;11.62;100.00;100968.28;5070302;28;20547;-66
2023/10/23 07:46:14;;;;;;;11.20;4.00;;;;;;;11.55;100.00;100978.31;5065661;28;20935;-67
2023/10/23 07:48:46;;;;;;;9.70;3.63;;;;;;;11.65;100.00;100973.31;5069839;28;20431;-65
2023/10/23 07:51:15;;;;;;;4.63;2.80;;;;;;;11.70;100.00;100970.81;5068108;28;20429;-67
2023/10/23 07:53:44;;;;;;;4.77;3.40;;;;;;;11.79;100.00;100984.19;5062056;28;20785;-65
2023/10/23 07:56:14;;;;;;;5.23;3.50;;;;;;;12.03;100.00;100983.56;5072376;28;20985;-68
2023/10/23 07:58:43;;;;;;;5.20;3.60;;;;;;;12.15;100.00;100981.91;5074312;28;20398;-67
2023/10/23 08:01:14;;;;;;;4.97;3.60;;;;;;;12.24;100.00;100980.63;5068658;28;20399;-67
2023/10/23 08:03:43;;;;;;;4.70;3.10;;;;;;;12.25;100.00;100990.41;5071366;28;20449;-67
2023/10/23 08:06:12;;;;;;;5.07;2.80;;;;;;;12.18;100.00;100986.91;5063376;28;20428;-66
2023/10/23 08:08:43;;;;;;;4.90;2.50;;;;;;;12.39;100.00;100994.78;5070907;28;20422;-66
2023/10/23 08:11:13;;;;;;;5.83;3.00;;;;;;;12.42;100.00;100990.81;5069641;28;20400;-67
2023/10/23 08:13:45;;;;;;;4.60;3.83;;;;;;;12.46;100.00;100998.31;5064093;28;20473;-66
2023/10/23 08:16:15;;;;;;;5.30;3.57;;;;;;;12.58;100.00;101002.06;5064580;28;20417;-64
2023/10/23 08:18:44;;;;;;;4.20;3.23;;;;;;;12.68;100.00;101003.50;5069584;28;20400;-67
2023/10/23 08:21:15;;;;;;;4.03;3.23;;;;;;;12.78;100.00;101001.19;5070236;28;20456;-67
2023/10/23 08:23:46;;;;;;;7.33;3.20;;;;;;;12.92;100.00;100995.50;5075699;28;20439;-66
2023/10/23 08:26:15;;;;;;;5.07;3.20;;;;;;;12.91;100.00;101001.13;5063776;28;20455;-67
2023/10/23 08:28:44;;;;;;;5.30;3.57;;;;;;;12.88;100.00;100998.81;5069934;28;20732;-67
2023/10/23 08:31:18;;;;;;;10.70;3.53;;;;;;;13.06;100.00;100993.53;5059593;28;20413;-68
2023/10/23 08:34:07;;;;;;;6.70;3.37;;;;;;;13.15;100.00;101002.31;5066968;28;20458;-68
2023/10/23 08:36:36;;;;;;;6.60;3.80;;;;;;;13.10;100.00;101000.22;5071717;28;20454;-67
2023/10/23 08:39:06;;;;;;;5.80;3.57;;;;;;;13.39;100.00;101005.09;5071246;28;20833;-66
2023/10/23 08:41:36;;;;;;;5.13;2.87;;;;;;;13.56;100.00;101001.84;5069121;28;20786;-67
2023/10/23 08:44:10;;;;;;;6.70;3.50;;;;;;;13.54;100.00;101001.25;5065871;28;20515;-67
2023/10/23 08:46:42;;;;;;;4.70;3.50;;;;;;;13.54;100.00;101009.41;5070865;28;20761;-68
2023/10/23 08:49:11;;;;;;;5.57;3.63;;;;;;;13.39;100.00;101005.09;5075085;28;20797;-65
2023/10/23 08:51:42;;;;;;;5.43;3.80;;;;;;;13.46;100.00;101008.59;5066942;28;20431;-67
2023/10/23 08:54:17;;;;;;;3.73;3.20;;;;;;;13.61;100.00;101007.47;5069131;28;20825;-67
2023/10/23 08:56:52;;;;;;;4.10;2.90;;;;;;;13.61;100.00;101012.91;5070323;28;20409;-67
2023/10/23 08:59:21;;;;;;;7.53;3.80;;;;;;;13.63;100.00;101010.81;5069728;28;20432;-67
2023/10/23 09:01:51;;;;;;;7.13;4.07;;;;;;;13.94;100.00;101008.09;5079738;28;20442;-68
2023/10/23 09:04:31;;;;;;;8.80;6.10;;;;;;;14.00;100.00;101009.06;5074395;28;20401;-67
2023/10/23 09:07:00;;;;;;;11.70;4.53;;;;;;;14.10;100.00;101010.25;5071054;28;20429;-67
2023/10/23 09:09:30;;;;;;;5.77;3.80;;;;;;;14.01;100.00;101008.84;5071802;28;20441;-66
2023/10/23 09:12:03;;;;;;;3.30;2.40;;;;;;;14.07;100.00;101002.53;5071259;28;20425;-67
2023/10/23 09:14:35;;;;;;;4.47;3.63;;;;;;;14.08;100.00;101001.47;5069430;28;20458;-67
2023/10/23 09:17:05;;;;;;;5.77;3.73;;;;;;;14.07;100.00;101007.13;5070570;28;20423;-67
2023/10/23 09:19:36;;;;;;;4.87;3.60;;;;;;;14.52;100.00;101005.06;5070329;28;20420;-68
2023/10/23 09:22:07;;;;;;;5.00;3.80;;;;;;;14.50;99.98;101002.56;5071639;28;20443;-66
2023/10/23 09:24:38;;;;;;;6.53;5.23;;;;;;;14.75;99.25;101000.63;5071621;28;20413;-67
2023/10/23 09:27:07;;;;;;;4.87;3.27;;;;;;;14.58;96.70;101004.16;5065351;28;20398;-68
2023/10/23 09:29:36;;;;;;;4.57;4.13;;;;;;;14.71;98.19;101004.03;5060809;28;20907;-67
2023/10/23 09:32:07;;;;;;;6.90;4.30;;;;;;;15.29;95.58;101006.25;5070830;28;20478;-68
2023/10/23 09:34:41;;;;;;;6.67;4.57;;;;;;;15.54;92.82;101004.25;5065901;28;20805;-67
2023/10/23 09:37:10;;;;;;;4.40;3.27;;;;;;;15.84;91.48;100994.13;5069356;28;20433;-67
2023/10/23 09:39:41;;;;;;;3.97;3.47;;;;;;;15.95;88.48;100996.03;5066100;28;20744;-68
2023/10/23 09:42:11;;;;;;;4.50;3.33;;;;;;;15.98;87.30;100995.56;5065111;28;20499;-68
2023/10/23 09:45:05;;;;;;;5.40;2.90;;;;;;;15.93;87.05;100992.69;5073952;28;20433;-69
2023/10/23 09:47:37;;;;;;;2.90;2.37;;;;;;;16.23;83.98;100994.50;5067968;28;20761;-67
2023/10/23 09:50:06;;;;;;;2.47;1.93;;;;;;;16.57;81.10;100996.41;5064230;28;20429;-67
2023/10/23 09:52:37;;;;;;;5.30;3.07;;;;;;;16.41;81.57;100994.41;5071679;28;20464;-68
2023/10/23 09:55:08;;;;;;;4.63;3.80;;;;;;;16.61;81.05;100994.88;5075259;28;20527;-67
2023/10/23 09:57:38;;;;;;;3.53;2.40;;;;;;;16.24;81.95;100988.00;5075427;28;20899;-68
2023/10/23 10:00:14;;;;;;;2.03;1.83;;;;;;;16.34;82.93;100994.53;5072306;28;20429;-68
2023/10/23 10:02:48;;;;;;;4.33;2.53;;;;;;;16.49;81.35;100985.84;5061437;28;20462;-67
2023/10/23 10:05:22;;;;;;;4.17;2.23;;;;;;;16.57;81.44;100990.94;5073688;28;20787;-67
2023/10/23 10:07:59;;;;;;;3.37;2.47;;;;;;;16.68;79.72;100989.31;5065854;28;20437;-66
2023/10/23 10:10:30;;;;;;;6.00;2.73;;;;;;;16.33;82.27;100986.56;5070545;28;20442;-68
2023/10/23 10:12:59;;;;;;;3.03;2.50;;;;;;;16.46;80.53;100991.78;5072355;28;20765;-67
2023/10/23 10:15:29;;;;;;;2.67;2.17;;;;;;;16.69;79.41;100994.53;5068845;28;20444;-68
2023/10/23 10:18:00;;;;;;;3.43;2.30;;;;;;;16.87;78.20;100988.91;5071045;28;20462;-68
2023/10/23 10:20:29;;;;;;;5.07;2.60;;;;;;;16.92;77.26;100990.91;5074768;28;20515;-68
2023/10/23 10:23:07;;;;;;;3.00;2.60;;;;;;;16.48;78.62;100985.03;5068873;28;20432;-67
2023/10/23 10:25:37;;;;;;;2.83;2.60;;;;;;;16.29;80.92;100974.47;5065530;28;20440;-67
2023/10/23 10:28:08;;;;;;;3.40;2.40;;;;;;;16.13;82.47;100986.06;5074412;28;20405;-68
2023/10/23 10:30:45;;;;;;;3.77;2.63;;;;;;;15.82;83.10;100981.78;5066679;28;20972;-69
2023/10/23 10:33:23;;;;;;;3.27;2.97;;;;;;;15.94;85.03;100972.53;5065410;28;20424;-67
2023/10/23 10:36:13;;;;;;;5.13;3.47;;;;;;;15.92;83.48;100982.88;5068874;28;20445;-67
2023/10/23 10:38:43;;;;;;;5.00;3.13;;;;;;;15.78;83.24;100981.41;5072355;28;20423;-68
2023/10/23 10:41:17;;;;;;;3.80;3.03;;;;;;;15.87;83.66;100982.75;5068434;28;20409;-66
2023/10/23 10:43:53;;;;;;;4.60;3.40;;;;;;;15.67;85.17;100976.78;5068545;28;20449;-66
2023/10/23 10:46:28;;;;;;;3.40;3.00;;;;;;;15.25;87.30;100980.50;5073347;28;20830;-66
2023/10/23 10:48:59;;;;;;;4.10;3.27;;;;;;;15.30;88.51;100981.47;5069646;28;20521;-67
2023/10/23 10:51:29;;;;;;;4.73;3.60;;;;;;;15.39;87.62;100971.91;5070162;28;20469;-69
2023/10/23 10:54:02;;;;;;;5.80;3.63;;;;;;;15.44;88.59;100973.94;5076192;28;20451;-67
2023/10/23 10:56:31;;;;;;;4.93;3.70;;;;;;;15.53;88.63;100980.75;5074409;28;20495;-69
2023/10/23 10:59:01;;;;;;;7.17;4.40;;;;;;;15.34;89.11;100971.78;5064147;28;20431;-67
2023/10/23 11:01:30;;;;;;;8.20;3.80;;;;;;;15.10;90.20;100962.66;5073222;28;20440;-68
2023/10/23 11:04:01;;;;;;;4.27;3.27;;;;;;;15.23;90.29;100957.03;5072810;28;20440;-67
2023/10/23 11:06:31;;;;;;;5.03;3.93;;;;;;;15.28;89.40;100966.41;5067452;28;20390;-67
2023/10/23 11:09:00;;;;;;;6.80;3.80;;;;;;;14.96;90.99;100955.72;5066757;28;20458;-66
2023/10/23 11:11:29;;;;;;;5.00;3.80;;;;;;;15.11;90.98;100958.88;5069040;28;20812;-67
2023/10/23 11:14:00;;;;;;;4.00;3.27;;;;;;;15.16;89.65;100959.00;5068755;28;20468;-67
2023/10/23 11:16:32;;;;;;;4.57;3.33;;;;;;;15.10;90.01;100949.03;5069288;28;20413;-67
2023/10/23 11:19:04;;;;;;;6.43;2.83;;;;;;;15.11;90.62;100956.13;5072140;28;20445;-67
2023/10/23 11:21:33;;;;;;;7.40;4.40;;;;;;;15.14;90.38;100952.13;5065933;28;20389;-67
2023/10/23 11:24:04;;;;;;;7.13;3.13;;;;;;;15.59;89.81;100945.19;5070767;28;20463;-66